createdAt,value
2023-03-22T00:01:43.818Z,100.00
2023-03-22T00:04:11.426Z,100.00
2023-03-22T00:06:38.983Z,100.00
2023-03-22T00:09:06.573Z,100.00
2023-03-22T00:11:34.112Z,100.00
2023-03-22T00:14:03.010Z,100.00
2023-03-22T00:16:30.597Z,100.00
2023-03-22T00:18:58.142Z,100.00
2023-03-22T00:21:25.806Z,100.00
2023-03-22T00:23:53.374Z,100.00
2023-03-22T00:26:20.966Z,100.00
2023-03-22T00:28:48.491Z,100.00
2023-03-22T00:31:17.428Z,100.00
2023-03-22T00:33:45.288Z,100.00
2023-03-22T00:36:13.700Z,100.00
2023-03-22T00:38:44.879Z,100.00
2023-03-22T00:41:15.946Z,100.00
2023-03-22T00:43:45.893Z,100.00
2023-03-22T00:46:14.589Z,100.00
2023-03-22T00:48:43.953Z,100.00
2023-03-22T00:51:12.067Z,100.00
2023-03-22T00:53:42.996Z,100.00
2023-03-22T00:56:13.665Z,100.00
2023-03-22T00:58:46.258Z,100.00
2023-03-22T01:01:14.497Z,100.00
2023-03-22T01:03:44.515Z,100.00
2023-03-22T01:06:15.829Z,100.00
2023-03-22T01:08:43.600Z,100.00
2023-03-22T01:11:11.487Z,100.00
2023-03-22T01:13:41.502Z,100.00
2023-03-22T01:16:10.610Z,100.00
2023-03-22T01:18:38.582Z,100.00
2023-03-22T01:21:09.028Z,100.00
2023-03-22T01:23:36.902Z,100.00
2023-03-22T01:26:05.151Z,100.00
2023-03-22T01:28:33.074Z,100.00
2023-03-22T01:31:02.538Z,100.00
2023-03-22T01:33:31.685Z,100.00
2023-03-22T01:36:00.282Z,100.00
2023-03-22T01:38:30.819Z,100.00
2023-03-22T01:41:00.819Z,100.00
2023-03-22T01:43:31.574Z,100.00
2023-03-22T01:46:00.080Z,100.00
2023-03-22T01:48:34.369Z,100.00
2023-03-22T01:51:08.672Z,100.00
2023-03-22T01:53:49.720Z,100.00
2023-03-22T01:56:20.535Z,100.00
2023-03-22T01:58:49.599Z,100.00
2023-03-22T02:01:22.391Z,100.00
2023-03-22T02:03:56.442Z,100.00
2023-03-22T02:06:25.370Z,100.00
2023-03-22T02:09:04.014Z,100.00
2023-03-22T02:11:34.734Z,100.00
2023-03-22T02:14:27.202Z,100.00
2023-03-22T02:17:14.246Z,100.00
2023-03-22T02:20:25.362Z,100.00
2023-03-22T02:23:24.746Z,100.00
2023-03-22T02:26:21.337Z,100.00
2023-03-22T02:28:54.539Z,100.00
2023-03-22T02:31:50.954Z,100.00
2023-03-22T02:34:50.554Z,100.00
2023-03-22T02:37:42.455Z,100.00
2023-03-22T02:40:17.502Z,100.00
2023-03-22T02:42:57.083Z,100.00
2023-03-22T02:45:31.010Z,100.00
2023-03-22T02:48:06.507Z,100.00
2023-03-22T02:50:41.572Z,100.00
2023-03-22T02:53:15.778Z,100.00
2023-03-22T02:55:50.232Z,100.00
2023-03-22T02:58:21.274Z,100.00
2023-03-22T03:00:54.290Z,100.00
2023-03-22T03:03:25.469Z,100.00
2023-03-22T03:05:57.458Z,100.00
2023-03-22T03:08:27.067Z,100.00
2023-03-22T03:10:56.562Z,100.00
2023-03-22T03:13:24.314Z,100.00
2023-03-22T03:15:55.162Z,100.00
2023-03-22T03:18:35.686Z,100.00
2023-03-22T03:21:16.968Z,100.00
2023-03-22T03:23:55.990Z,100.00
2023-03-22T03:26:34.532Z,100.00
2023-03-22T03:29:06.559Z,100.00
2023-03-22T03:31:43.075Z,100.00
2023-03-22T03:34:18.069Z,100.00
2023-03-22T03:36:51.851Z,100.00
2023-03-22T03:39:21.898Z,100.00
2023-03-22T03:41:52.702Z,100.00
2023-03-22T03:44:20.969Z,100.00
2023-03-22T03:46:49.265Z,100.00
2023-03-22T03:49:17.965Z,100.00
2023-03-22T03:51:50.957Z,100.00
2023-03-22T03:54:18.696Z,100.00
2023-03-22T03:56:47.637Z,100.00
2023-03-22T03:59:17.085Z,100.00
2023-03-22T04:01:51.641Z,100.00
2023-03-22T04:04:29.160Z,100.00
2023-03-22T04:07:03.477Z,100.00
2023-03-22T04:09:33.382Z,100.00
2023-03-22T04:12:23.796Z,100.00
2023-03-22T04:15:13.759Z,100.00
2023-03-22T04:17:43.328Z,100.00
2023-03-22T04:20:13.540Z,100.00
2023-03-22T04:22:42.556Z,100.00
2023-03-22T04:25:12.759Z,100.00
2023-03-22T04:27:50.901Z,100.00
2023-03-22T04:30:22.173Z,100.00
2023-03-22T04:33:06.794Z,100.00
2023-03-22T04:36:02.055Z,100.00
2023-03-22T04:38:37.260Z,100.00
2023-03-22T04:41:05.422Z,100.00
2023-03-22T04:43:39.389Z,100.00
2023-03-22T04:46:12.608Z,100.00
2023-03-22T04:48:47.130Z,100.00
2023-03-22T04:51:14.844Z,100.00
2023-03-22T04:53:52.420Z,100.00
2023-03-22T04:56:20.200Z,100.00
2023-03-22T04:58:50.153Z,100.00
2023-03-22T05:01:19.705Z,100.00
2023-03-22T05:03:53.287Z,100.00
2023-03-22T05:06:23.494Z,100.00
2023-03-22T05:09:04.462Z,100.00
2023-03-22T05:11:31.978Z,100.00
2023-03-22T05:14:13.351Z,100.00
2023-03-22T05:16:43.322Z,100.00
2023-03-22T05:19:13.804Z,100.00
2023-03-22T05:21:45.030Z,100.00
2023-03-22T05:24:13.085Z,100.00
2023-03-22T05:26:43.134Z,100.00
2023-03-22T05:29:12.738Z,100.00
2023-03-22T05:32:00.276Z,100.00
2023-03-22T05:34:35.209Z,100.00
2023-03-22T05:37:10.950Z,100.00
2023-03-22T05:39:54.418Z,100.00
2023-03-22T05:42:27.189Z,100.00
2023-03-22T05:44:55.262Z,100.00
2023-03-22T05:47:24.146Z,100.00
2023-03-22T05:50:00.884Z,100.00
2023-03-22T05:52:30.262Z,100.00
2023-03-22T05:55:18.351Z,100.00
2023-03-22T05:57:51.255Z,100.00
2023-03-22T06:00:19.903Z,100.00
2023-03-22T06:03:08.929Z,100.00
2023-03-22T06:05:41.659Z,100.00
2023-03-22T06:08:10.058Z,100.00
2023-03-22T06:10:37.786Z,100.00
2023-03-22T06:13:06.133Z,100.00
2023-03-22T06:15:35.134Z,100.00
2023-03-22T06:18:09.889Z,100.00
2023-03-22T06:20:42.484Z,100.00
2023-03-22T06:23:21.175Z,100.00
2023-03-22T06:25:49.835Z,100.00
2023-03-22T06:28:18.649Z,100.00
2023-03-22T06:30:51.369Z,100.00
2023-03-22T06:33:30.202Z,100.00
2023-03-22T06:36:04.737Z,100.00
2023-03-22T06:38:44.006Z,100.00
2023-03-22T06:41:11.580Z,100.00
2023-03-22T06:43:39.557Z,100.00
2023-03-22T06:46:20.605Z,100.00
2023-03-22T06:48:58.929Z,100.00
2023-03-22T06:51:26.494Z,100.00
2023-03-22T06:53:54.233Z,100.00
2023-03-22T06:56:22.065Z,100.00
2023-03-22T06:58:54.680Z,100.00
2023-03-22T07:01:22.377Z,100.00
2023-03-22T07:03:50.138Z,100.00
2023-03-22T07:06:23.137Z,100.00
2023-03-22T07:08:52.206Z,100.00
2023-03-22T07:11:25.845Z,100.00
2023-03-22T07:13:59.042Z,100.00
2023-03-22T07:16:31.907Z,100.00
2023-03-22T07:19:01.989Z,100.00
2023-03-22T07:21:31.152Z,100.00
2023-03-22T07:24:03.169Z,100.00
2023-03-22T07:26:32.815Z,100.00
2023-03-22T07:29:02.454Z,99.88
2023-03-22T07:31:35.587Z,100.00
2023-03-22T07:34:06.679Z,100.00
2023-03-22T07:36:44.475Z,99.76
2023-03-22T07:39:13.183Z,99.69
2023-03-22T07:41:45.228Z,99.52
2023-03-22T07:44:35.922Z,99.67
2023-03-22T07:47:40.079Z,99.43
2023-03-22T07:50:28.274Z,99.45
2023-03-22T07:52:59.287Z,99.21
2023-03-22T07:55:26.994Z,98.89
2023-03-22T07:57:54.925Z,99.45
2023-03-22T08:00:23.593Z,99.45
2023-03-22T08:03:02.654Z,99.69
2023-03-22T08:05:54.667Z,100.00
2023-03-22T08:08:23.677Z,99.67
2023-03-22T08:10:51.977Z,100.00
2023-03-22T08:13:19.844Z,100.00
2023-03-22T08:15:47.524Z,100.00
2023-03-22T08:18:15.424Z,99.88
2023-03-22T08:20:45.281Z,100.00
2023-03-22T08:23:17.956Z,100.00
2023-03-22T08:26:13.293Z,100.00
2023-03-22T08:28:41.132Z,100.00
2023-03-22T08:31:14.726Z,99.83
2023-03-22T08:33:45.636Z,99.89
2023-03-22T08:36:16.280Z,98.95
2023-03-22T08:38:49.808Z,99.18
2023-03-22T08:41:20.923Z,97.64
2023-03-22T08:43:48.640Z,98.22
2023-03-22T08:46:16.284Z,97.13
2023-03-22T08:48:50.450Z,96.77
2023-03-22T08:51:24.040Z,96.44
2023-03-22T08:54:03.843Z,95.99
2023-03-22T08:56:51.474Z,95.44
2023-03-22T08:59:54.421Z,96.02
2023-03-22T09:02:38.586Z,95.70
2023-03-22T09:05:06.952Z,95.63
2023-03-22T09:07:34.803Z,95.17
2023-03-22T09:10:08.941Z,94.15
2023-03-22T09:12:41.104Z,93.61
2023-03-22T09:15:09.605Z,92.40
2023-03-22T09:17:40.186Z,92.42
2023-03-22T09:20:12.800Z,91.74
2023-03-22T09:22:43.167Z,92.49
2023-03-22T09:25:13.458Z,91.89
2023-03-22T09:27:45.804Z,90.91
2023-03-22T09:30:14.110Z,90.97
2023-03-22T09:32:41.830Z,90.51
2023-03-22T09:35:12.138Z,90.36
2023-03-22T09:37:53.215Z,90.25
2023-03-22T09:40:22.225Z,91.30
2023-03-22T09:42:55.763Z,90.23
2023-03-22T09:45:35.130Z,91.25
2023-03-22T09:48:08.109Z,91.48
2023-03-22T09:50:44.768Z,91.65
2023-03-22T09:53:15.271Z,91.43
2023-03-22T09:55:48.248Z,91.08
2023-03-22T09:58:24.792Z,90.37
2023-03-22T10:00:58.452Z,89.74
2023-03-22T10:03:43.779Z,88.59
2023-03-22T10:06:18.805Z,88.20
2023-03-22T10:08:58.464Z,88.48
2023-03-22T10:11:37.391Z,88.73
2023-03-22T10:14:23.380Z,88.50
2023-03-22T10:16:56.453Z,88.63
2023-03-22T10:19:28.460Z,88.01
2023-03-22T10:21:59.005Z,88.44
2023-03-22T10:24:30.509Z,86.71
2023-03-22T10:26:58.223Z,86.82
2023-03-22T10:29:34.743Z,87.14
2023-03-22T10:32:15.650Z,88.10
2023-03-22T10:34:44.353Z,87.28
2023-03-22T10:37:16.278Z,85.43
2023-03-22T10:39:46.279Z,86.31
2023-03-22T10:42:16.611Z,85.10
2023-03-22T10:44:49.280Z,84.76
2023-03-22T10:47:18.856Z,84.42
2023-03-22T10:49:54.637Z,84.24
2023-03-22T10:52:36.753Z,84.01
2023-03-22T10:55:05.474Z,82.97
2023-03-22T10:57:32.983Z,83.33
2023-03-22T11:00:07.758Z,83.22
2023-03-22T11:02:35.670Z,83.08
2023-03-22T11:05:07.088Z,82.61
2023-03-22T11:07:36.375Z,81.89
2023-03-22T11:10:22.629Z,81.87
2023-03-22T11:12:53.425Z,80.59
2023-03-22T11:15:33.474Z,79.78
2023-03-22T11:18:05.702Z,80.33
2023-03-22T11:20:34.226Z,79.66
2023-03-22T11:23:05.100Z,78.65
2023-03-22T11:25:35.652Z,78.98
2023-03-22T11:28:09.975Z,78.93
2023-03-22T11:30:39.769Z,79.42
2023-03-22T11:33:18.516Z,79.11
2023-03-22T11:35:48.158Z,78.34
2023-03-22T11:38:31.030Z,79.16
2023-03-22T11:41:02.534Z,79.57
2023-03-22T11:43:35.674Z,80.05
2023-03-22T11:46:05.790Z,79.98
2023-03-22T11:48:35.244Z,79.50
2023-03-22T11:51:09.681Z,79.01
2023-03-22T11:53:40.462Z,79.03
2023-03-22T11:56:12.159Z,78.15
2023-03-22T11:58:55.528Z,78.32
2023-03-22T12:01:34.441Z,77.65
2023-03-22T12:04:03.947Z,76.81
2023-03-22T12:06:35.496Z,75.92
2023-03-22T12:09:07.542Z,75.91
2023-03-22T12:11:38.589Z,76.14
2023-03-22T12:14:09.468Z,75.96
2023-03-22T12:16:45.580Z,76.07
2023-03-22T12:19:23.420Z,77.10
2023-03-22T12:21:52.753Z,75.55
2023-03-22T12:24:28.112Z,75.11
2023-03-22T12:27:01.017Z,76.05
2023-03-22T12:29:29.939Z,76.04
2023-03-22T12:32:03.337Z,75.55
2023-03-22T12:34:37.722Z,76.66
2023-03-22T12:37:09.174Z,76.31
2023-03-22T12:39:42.100Z,76.73
2023-03-22T12:42:18.698Z,76.99
2023-03-22T12:45:02.243Z,77.30
2023-03-22T12:47:41.500Z,79.10
2023-03-22T12:50:14.798Z,79.85
2023-03-22T12:52:47.104Z,82.35
2023-03-22T12:55:23.838Z,81.96
2023-03-22T12:57:54.396Z,83.40
2023-03-22T13:00:22.999Z,85.83
2023-03-22T13:02:59.757Z,88.18
2023-03-22T13:05:29.663Z,87.58
2023-03-22T13:08:03.370Z,87.77
2023-03-22T13:11:01.139Z,89.07
2023-03-22T13:13:42.379Z,89.76
2023-03-22T13:16:19.260Z,90.60
2023-03-22T13:19:03.144Z,91.53
2023-03-22T13:21:34.763Z,91.01
2023-03-22T13:24:21.405Z,92.79
2023-03-22T13:26:51.398Z,90.57
2023-03-22T13:29:21.796Z,91.78
2023-03-22T13:31:58.276Z,92.38
2023-03-22T13:34:38.444Z,91.86
2023-03-22T13:37:10.811Z,92.32
2023-03-22T13:39:39.271Z,92.51
2023-03-22T13:42:19.678Z,92.61
2023-03-22T13:44:56.930Z,92.08
2023-03-22T13:47:36.834Z,92.07
2023-03-22T13:50:12.981Z,92.51
2023-03-22T13:52:43.239Z,92.24
2023-03-22T13:55:41.133Z,92.21
2023-03-22T13:58:11.700Z,92.02
2023-03-22T14:00:44.669Z,92.48
2023-03-22T14:03:17.464Z,92.24
2023-03-22T14:05:49.337Z,92.40
2023-03-22T14:08:28.066Z,92.01
2023-03-22T14:10:59.284Z,92.88
2023-03-22T14:13:32.539Z,91.62
2023-03-22T14:16:05.584Z,92.56
2023-03-22T14:18:36.017Z,91.23
2023-03-22T14:21:08.989Z,91.53
